createdAt,value
2023-12-24T00:01:15.225Z,5.30
2023-12-24T00:03:44.566Z,5.30
2023-12-24T00:06:12.710Z,5.37
2023-12-24T00:08:40.656Z,5.36
2023-12-24T00:11:08.429Z,5.38
2023-12-24T00:13:36.096Z,5.39
2023-12-24T00:16:03.645Z,5.37
2023-12-24T00:18:31.344Z,5.44
2023-12-24T00:21:01.070Z,5.43
2023-12-24T00:23:28.718Z,5.43
2023-12-24T00:25:56.249Z,5.41
2023-12-24T00:28:23.818Z,5.53
2023-12-24T00:30:51.484Z,5.48
2023-12-24T00:33:19.295Z,5.46
2023-12-24T00:35:46.982Z,5.50
2023-12-24T00:38:16.408Z,5.48
2023-12-24T00:40:44.077Z,5.53
2023-12-24T00:43:11.738Z,5.54
2023-12-24T00:45:40.107Z,5.50
2023-12-24T00:48:09.001Z,5.45
2023-12-24T00:50:36.830Z,5.51
2023-12-24T00:53:04.581Z,5.50
2023-12-24T00:55:33.835Z,5.53
2023-12-24T00:58:01.583Z,5.52
2023-12-24T01:00:29.206Z,5.52
2023-12-24T01:07:46.362Z,5.38
2023-12-24T01:10:14.351Z,5.42
2023-12-24T01:12:43.493Z,5.40
2023-12-24T01:15:12.264Z,5.45
2023-12-24T01:17:40.226Z,5.36
2023-12-24T01:20:14.897Z,5.31
2023-12-24T01:22:42.469Z,5.36
2023-12-24T01:25:11.300Z,5.36
2023-12-24T01:27:39.035Z,5.32
2023-12-24T01:30:08.588Z,5.34
2023-12-24T01:32:36.345Z,5.35
2023-12-24T01:35:04.327Z,5.33
2023-12-24T01:37:31.982Z,5.33
2023-12-24T01:39:59.546Z,5.32
2023-12-24T01:42:28.516Z,5.33
2023-12-24T01:44:56.201Z,5.33
2023-12-24T01:47:24.061Z,5.37
2023-12-24T01:49:52.159Z,5.38
2023-12-24T01:52:20.102Z,5.32
2023-12-24T01:54:49.749Z,5.30
2023-12-24T01:57:17.120Z,5.34
2023-12-24T01:59:46.387Z,5.34
2023-12-24T02:02:14.909Z,5.32
2023-12-24T02:04:43.183Z,5.39
2023-12-24T02:07:13.294Z,5.35
2023-12-24T02:09:41.176Z,5.30
2023-12-24T02:12:08.910Z,5.32
2023-12-24T02:14:36.839Z,5.36
2023-12-24T02:17:08.455Z,5.40
2023-12-24T02:19:36.508Z,5.41
2023-12-24T02:22:05.869Z,5.35
2023-12-24T02:24:33.632Z,5.36
2023-12-24T02:27:07.819Z,5.38
2023-12-24T02:29:43.214Z,5.33
2023-12-24T02:32:15.120Z,5.32
2023-12-24T02:34:46.076Z,5.30
2023-12-24T02:37:15.219Z,5.31
2023-12-24T02:39:43.993Z,5.32
2023-12-24T02:42:12.195Z,5.31
2023-12-24T02:44:41.034Z,5.31
2023-12-24T02:47:08.769Z,5.30
2023-12-24T02:49:36.431Z,5.31
2023-12-24T02:52:05.279Z,5.30
2023-12-24T02:54:34.387Z,5.24
2023-12-24T02:57:02.221Z,5.26
2023-12-24T02:59:30.222Z,5.35
2023-12-24T03:01:57.993Z,5.33
2023-12-24T03:04:25.675Z,5.30
2023-12-24T03:06:53.971Z,5.26
2023-12-24T03:09:22.015Z,5.24
2023-12-24T03:11:50.944Z,5.28
2023-12-24T03:14:18.619Z,5.23
2023-12-24T03:16:46.301Z,5.24
2023-12-24T03:19:13.900Z,5.20
2023-12-24T03:21:42.159Z,5.23
2023-12-24T03:24:10.230Z,5.28
2023-12-24T03:26:37.882Z,5.32
2023-12-24T03:29:07.294Z,5.18
2023-12-24T03:31:35.172Z,5.40
2023-12-24T03:34:02.828Z,5.41
2023-12-24T03:36:30.462Z,5.43
2023-12-24T03:38:57.898Z,5.48
2023-12-24T03:41:25.606Z,5.45
2023-12-24T03:43:53.274Z,5.46
2023-12-24T03:46:22.504Z,5.49
2023-12-24T03:48:50.132Z,5.45
2023-12-24T03:51:19.347Z,5.48
2023-12-24T03:53:46.956Z,5.47
2023-12-24T03:56:14.477Z,5.51
2023-12-24T03:58:42.124Z,5.47
2023-12-24T04:01:11.183Z,5.46
2023-12-24T04:03:42.350Z,5.45
2023-12-24T04:06:14.970Z,5.47
2023-12-24T04:08:42.764Z,5.45
2023-12-24T04:11:14.207Z,5.46
2023-12-24T04:13:42.120Z,5.45
2023-12-24T04:16:09.960Z,5.44
2023-12-24T04:18:37.887Z,5.38
2023-12-24T04:21:07.139Z,5.46
2023-12-24T04:23:34.884Z,5.42
2023-12-24T04:26:02.721Z,5.42
2023-12-24T04:28:30.374Z,5.40
2023-12-24T04:30:58.249Z,5.39
2023-12-24T04:33:26.101Z,5.41
2023-12-24T04:35:53.953Z,5.41
2023-12-24T04:38:23.160Z,5.42
2023-12-24T04:40:50.785Z,5.41
2023-12-24T04:43:18.260Z,5.36
2023-12-24T04:45:45.854Z,5.33
2023-12-24T04:48:13.355Z,5.32
2023-12-24T04:50:41.038Z,5.35
2023-12-24T04:53:08.881Z,5.28
2023-12-24T04:55:37.896Z,5.25
2023-12-24T04:58:05.496Z,5.30
2023-12-24T05:00:33.158Z,5.35
2023-12-24T05:03:00.622Z,5.37
2023-12-24T05:05:28.332Z,5.38
2023-12-24T05:07:55.975Z,5.40
2023-12-24T05:10:23.416Z,5.39
2023-12-24T05:12:52.801Z,5.46
2023-12-24T05:15:20.805Z,5.43
2023-12-24T05:17:48.613Z,5.44
2023-12-24T05:20:16.374Z,5.46
2023-12-24T05:22:43.843Z,5.41
2023-12-24T05:25:11.458Z,5.39
2023-12-24T05:27:39.590Z,5.43
2023-12-24T05:30:09.713Z,5.44
2023-12-24T05:32:37.494Z,5.43
2023-12-24T05:35:07.241Z,5.47
2023-12-24T05:37:35.059Z,5.42
2023-12-24T05:40:02.516Z,5.46
2023-12-24T05:42:30.107Z,5.46
2023-12-24T05:44:57.811Z,5.41
2023-12-24T05:47:27.042Z,5.43
2023-12-24T05:49:54.836Z,5.38
2023-12-24T05:52:22.266Z,5.40
2023-12-24T05:54:50.060Z,5.38
2023-12-24T05:57:17.662Z,5.44
2023-12-24T05:59:45.325Z,5.43
2023-12-24T06:02:12.859Z,5.45
2023-12-24T06:04:41.895Z,5.46
2023-12-24T06:07:09.552Z,5.48
2023-12-24T06:09:37.055Z,5.41
2023-12-24T06:12:06.658Z,5.38
2023-12-24T06:14:34.377Z,5.49
2023-12-24T06:17:02.204Z,5.41
2023-12-24T06:19:29.000Z,5.49
2023-12-24T06:22:01.132Z,5.45
2023-12-24T06:24:28.734Z,5.40
2023-12-24T06:26:56.169Z,5.40
2023-12-24T06:29:23.854Z,5.34
2023-12-24T06:31:51.301Z,5.39
2023-12-24T06:34:18.953Z,5.40
2023-12-24T06:36:46.416Z,5.40
2023-12-24T06:39:15.371Z,5.40
2023-12-24T06:41:43.145Z,5.41
2023-12-24T06:44:10.863Z,5.39
2023-12-24T06:46:38.595Z,5.40
2023-12-24T06:49:06.398Z,5.45
2023-12-24T06:51:34.027Z,5.44
2023-12-24T06:54:01.464Z,5.51
2023-12-24T06:56:30.414Z,5.45
2023-12-24T06:58:58.093Z,5.50
2023-12-24T07:01:25.615Z,5.47
2023-12-24T07:03:53.246Z,5.47
2023-12-24T07:06:20.802Z,5.49
2023-12-24T07:08:48.452Z,5.53
2023-12-24T07:11:15.986Z,5.56
2023-12-24T07:13:44.988Z,5.53
2023-12-24T07:16:12.727Z,5.52
2023-12-24T07:18:40.792Z,5.48
2023-12-24T07:21:08.939Z,5.56
2023-12-24T07:23:36.552Z,5.58
2023-12-24T07:26:04.439Z,5.53
2023-12-24T07:28:32.065Z,5.60
2023-12-24T07:31:01.110Z,5.67
2023-12-24T07:33:28.838Z,5.63
2023-12-24T07:35:56.705Z,5.73
2023-12-24T07:38:24.489Z,5.68
2023-12-24T07:40:52.102Z,5.74
2023-12-24T07:43:19.539Z,5.75
2023-12-24T07:45:47.152Z,5.82
2023-12-24T07:48:16.102Z,5.87
2023-12-24T07:50:44.189Z,5.84
2023-12-24T07:53:11.830Z,5.88
2023-12-24T07:55:39.314Z,5.98
2023-12-24T07:58:07.007Z,6.02
2023-12-24T08:00:34.759Z,6.03
2023-12-24T08:03:02.583Z,6.13
2023-12-24T08:05:32.342Z,6.12
2023-12-24T08:08:00.006Z,6.15
2023-12-24T08:10:27.631Z,6.12
2023-12-24T08:13:04.629Z,6.13
2023-12-24T08:15:36.393Z,6.16
2023-12-24T08:18:04.553Z,6.28
2023-12-24T08:20:33.783Z,6.28
2023-12-24T08:23:01.633Z,6.26
2023-12-24T08:25:29.298Z,6.24
2023-12-24T08:27:56.793Z,6.23
2023-12-24T08:30:24.693Z,6.36
2023-12-24T08:32:52.707Z,6.37
2023-12-24T08:35:20.644Z,6.42
2023-12-24T08:37:49.666Z,6.39
2023-12-24T08:40:17.294Z,6.31
2023-12-24T08:42:44.954Z,6.14
2023-12-24T08:45:14.155Z,6.09
2023-12-24T08:47:42.234Z,6.01
2023-12-24T08:50:10.499Z,5.82
2023-12-24T08:52:38.505Z,5.72
2023-12-24T08:55:07.981Z,5.74
2023-12-24T08:57:36.752Z,5.64
2023-12-24T09:00:06.317Z,5.70
2023-12-24T09:02:33.989Z,5.61
2023-12-24T09:05:01.571Z,5.55
2023-12-24T09:07:29.291Z,5.57
2023-12-24T09:09:56.881Z,5.55
2023-12-24T09:12:25.810Z,5.58
2023-12-24T09:14:53.472Z,5.59
2023-12-24T09:17:21.153Z,5.60
2023-12-24T09:19:48.822Z,5.57
2023-12-24T09:22:16.268Z,5.68
2023-12-24T09:24:43.926Z,5.66
2023-12-24T09:27:11.483Z,5.50
2023-12-24T09:29:40.530Z,5.48
2023-12-24T09:32:08.562Z,5.50
2023-12-24T09:34:36.293Z,5.47
2023-12-24T09:37:03.986Z,5.41
2023-12-24T09:39:31.451Z,5.40
2023-12-24T09:41:59.560Z,5.37
2023-12-24T09:44:28.070Z,5.40
2023-12-24T09:46:57.692Z,5.44
2023-12-24T09:49:25.420Z,5.43
2023-12-24T09:51:56.587Z,5.40
2023-12-24T09:54:24.511Z,5.38
2023-12-24T09:56:52.203Z,5.36
2023-12-24T09:59:20.113Z,5.39
2023-12-24T10:01:47.836Z,5.35
2023-12-24T10:04:17.087Z,5.28
2023-12-24T10:06:55.203Z,5.22
2023-12-24T10:09:24.699Z,5.32
2023-12-24T10:12:06.223Z,5.25
2023-12-24T10:14:36.656Z,5.33
2023-12-24T10:17:05.069Z,5.40
2023-12-24T10:19:34.622Z,5.36
2023-12-24T10:22:03.388Z,5.42
2023-12-24T10:24:31.765Z,5.39
2023-12-24T10:27:10.144Z,5.54
2023-12-24T10:29:39.465Z,5.56
2023-12-24T10:32:07.754Z,5.56
2023-12-24T10:34:37.079Z,5.72
2023-12-24T10:37:19.099Z,5.79
2023-12-24T10:39:46.873Z,5.92
2023-12-24T10:42:14.767Z,5.96
2023-12-24T10:44:50.811Z,6.05
2023-12-24T10:47:18.469Z,6.09
2023-12-24T10:49:47.586Z,6.25
2023-12-24T10:52:15.165Z,6.26
2023-12-24T10:54:42.988Z,6.33
2023-12-24T10:57:24.917Z,6.40
2023-12-24T11:00:10.515Z,6.65
2023-12-24T11:02:39.268Z,6.68
2023-12-24T11:05:08.907Z,6.98
2023-12-24T11:07:50.293Z,7.17
2023-12-24T11:10:41.264Z,7.27
2023-12-24T11:13:12.498Z,7.38
2023-12-24T11:15:42.195Z,7.51
2023-12-24T11:18:11.128Z,7.41
2023-12-24T11:20:45.217Z,7.21
2023-12-24T11:23:15.327Z,6.91
2023-12-24T11:25:44.960Z,7.04
2023-12-24T11:28:14.035Z,7.09
2023-12-24T11:31:06.667Z,6.99
2023-12-24T11:33:48.336Z,6.91
2023-12-24T11:36:20.006Z,7.01
2023-12-24T11:38:51.181Z,6.90
2023-12-24T11:41:21.346Z,6.75
2023-12-24T11:43:56.851Z,6.79
2023-12-24T11:46:25.919Z,6.78
2023-12-24T11:48:54.962Z,6.75
2023-12-24T11:51:26.028Z,6.75
2023-12-24T11:54:00.881Z,6.69
2023-12-24T11:56:30.061Z,6.71
2023-12-24T11:59:02.052Z,6.72
2023-12-24T12:01:32.209Z,6.76
2023-12-24T12:04:01.679Z,6.73
2023-12-24T12:06:31.364Z,6.73
2023-12-24T12:08:59.958Z,6.73
2023-12-24T12:11:27.547Z,6.76
2023-12-24T12:13:55.184Z,6.74
2023-12-24T12:16:22.641Z,6.70
2023-12-24T12:18:50.229Z,6.82
2023-12-24T12:21:17.692Z,6.76
2023-12-24T12:23:46.985Z,6.82
2023-12-24T12:26:14.866Z,6.94
2023-12-24T12:28:42.594Z,6.94
2023-12-24T12:31:10.190Z,7.01
2023-12-24T12:33:37.737Z,7.12
2023-12-24T12:36:08.637Z,7.18
2023-12-24T12:38:36.839Z,7.20
2023-12-24T12:41:06.335Z,7.14
2023-12-24T12:43:34.276Z,7.20
2023-12-24T12:46:01.875Z,7.30
2023-12-24T12:48:29.578Z,7.26
2023-12-24T12:50:57.419Z,7.36
2023-12-24T12:53:25.863Z,7.50
2023-12-24T12:56:01.906Z,7.61
2023-12-24T12:58:30.974Z,7.52
2023-12-24T13:00:59.514Z,7.50
2023-12-24T13:03:27.490Z,7.58
2023-12-24T13:05:56.140Z,7.47
2023-12-24T13:08:23.970Z,7.38
2023-12-24T13:10:51.660Z,7.29
2023-12-24T13:13:21.717Z,7.18
2023-12-24T13:16:04.360Z,7.17
2023-12-24T13:18:32.435Z,7.29
2023-12-24T13:21:03.322Z,7.32
2023-12-24T13:23:31.597Z,7.46
2023-12-24T13:25:59.758Z,7.48
2023-12-24T13:28:27.490Z,7.59
2023-12-24T13:30:56.989Z,7.67
2023-12-24T13:33:24.903Z,7.89
2023-12-24T13:35:52.664Z,8.00
2023-12-24T13:38:21.672Z,8.03
2023-12-24T13:40:50.179Z,7.98
2023-12-24T13:43:17.830Z,8.19
2023-12-24T13:45:45.760Z,8.13
2023-12-24T13:48:15.024Z,8.30
2023-12-24T13:50:43.953Z,8.45
2023-12-24T13:53:23.206Z,8.47
2023-12-24T13:55:59.002Z,8.58
2023-12-24T13:58:26.855Z,8.69
2023-12-24T14:00:54.666Z,8.65
2023-12-24T14:03:25.303Z,8.66
2023-12-24T14:05:53.222Z,8.59
2023-12-24T14:08:22.359Z,8.62
2023-12-24T14:10:50.627Z,8.66
2023-12-24T14:13:18.365Z,8.79
2023-12-24T14:15:46.123Z,8.80
2023-12-24T14:18:13.990Z,8.96
2023-12-24T14:20:43.002Z,8.94
2023-12-24T14:23:10.663Z,9.00
2023-12-24T14:25:38.315Z,9.10
2023-12-24T14:28:06.034Z,9.09
2023-12-24T14:30:33.747Z,9.04
2023-12-24T14:33:01.915Z,9.02
2023-12-24T14:35:30.350Z,8.97
2023-12-24T14:37:59.471Z,9.00
2023-12-24T14:40:27.272Z,9.09
2023-12-24T14:42:55.450Z,9.08
2023-12-24T14:45:23.268Z,9.05
2023-12-24T14:47:51.021Z,9.02
2023-12-24T14:50:18.677Z,9.23
2023-12-24T14:52:46.948Z,9.22
2023-12-24T14:55:16.883Z,9.21
2023-12-24T14:57:44.479Z,9.19
2023-12-24T15:00:14.194Z,9.19
2023-12-24T15:02:43.112Z,9.26
2023-12-24T15:05:11.197Z,9.22
2023-12-24T15:07:39.797Z,9.24
2023-12-24T15:10:08.860Z,9.30
2023-12-24T15:12:37.866Z,9.39
2023-12-24T15:15:06.869Z,9.39
2023-12-24T15:17:35.841Z,9.43
2023-12-24T15:20:05.093Z,9.35
2023-12-24T15:22:33.276Z,9.28
2023-12-24T15:25:01.057Z,9.28
2023-12-24T15:27:28.695Z,9.21
2023-12-24T15:29:58.149Z,9.22
2023-12-24T15:32:27.076Z,9.14
2023-12-24T15:34:54.765Z,8.99
2023-12-24T15:37:22.824Z,8.75
2023-12-24T15:39:50.528Z,8.66
2023-12-24T15:42:18.148Z,8.61
2023-12-24T15:44:45.802Z,8.52
2023-12-24T15:47:14.911Z,8.44
2023-12-24T15:49:44.700Z,8.38
2023-12-24T15:52:12.976Z,8.31
2023-12-24T15:54:40.594Z,8.30
2023-12-24T15:57:09.169Z,8.29
2023-12-24T15:59:37.157Z,8.29
2023-12-24T16:02:04.949Z,8.34
2023-12-24T16:04:34.013Z,8.37
2023-12-24T16:07:01.691Z,8.44
2023-12-24T16:09:29.672Z,8.52
2023-12-24T16:11:57.361Z,8.55
2023-12-24T16:14:25.342Z,8.64
2023-12-24T16:16:53.054Z,8.74
2023-12-24T16:19:20.670Z,8.77
2023-12-24T16:21:50.097Z,8.79
2023-12-24T16:24:17.673Z,8.79
2023-12-24T16:26:45.834Z,8.78
2023-12-24T16:29:13.611Z,8.81
2023-12-24T16:31:42.177Z,8.86
2023-12-24T16:34:10.242Z,8.97
2023-12-24T16:36:39.172Z,8.98
2023-12-24T16:39:08.088Z,8.96
2023-12-24T16:41:39.015Z,8.96
2023-12-24T16:44:07.141Z,8.98
2023-12-24T16:46:34.859Z,9.01
2023-12-24T16:49:02.590Z,8.97
2023-12-24T16:51:30.343Z,9.01
2023-12-24T16:53:58.058Z,8.96
2023-12-24T16:56:27.071Z,8.89
2023-12-24T16:58:54.736Z,9.08
2023-12-24T17:01:22.556Z,9.22
2023-12-24T17:03:50.207Z,9.14
2023-12-24T17:06:18.042Z,9.15
2023-12-24T17:08:46.129Z,9.17
2023-12-24T17:11:13.810Z,8.95
2023-12-24T17:13:43.467Z,8.71
2023-12-24T17:16:11.158Z,8.20
2023-12-24T17:18:38.985Z,7.84
2023-12-24T17:21:06.760Z,7.68
2023-12-24T17:23:34.373Z,7.52
2023-12-24T17:26:02.166Z,7.31
2023-12-24T17:28:29.766Z,7.26
2023-12-24T17:30:59.370Z,7.19
2023-12-24T17:33:27.141Z,7.18
2023-12-24T17:35:54.813Z,7.26
2023-12-24T17:38:22.519Z,7.17
2023-12-24T17:40:50.168Z,7.15
2023-12-24T17:43:19.797Z,7.16
2023-12-24T17:45:48.788Z,7.14
2023-12-24T17:48:22.200Z,7.22
2023-12-24T17:50:50.480Z,7.24
2023-12-24T17:53:20.312Z,7.32
2023-12-24T17:55:48.062Z,7.40
2023-12-24T17:58:15.942Z,7.39
2023-12-24T18:00:43.687Z,7.53
2023-12-24T18:03:13.683Z,7.68
2023-12-24T18:05:43.781Z,7.71
2023-12-24T18:08:11.501Z,7.81
2023-12-24T18:10:39.223Z,7.76
2023-12-24T18:13:06.987Z,7.86
2023-12-24T18:15:34.726Z,7.99
2023-12-24T18:18:03.890Z,8.06
2023-12-24T18:20:31.778Z,8.11
2023-12-24T18:23:00.856Z,8.15
2023-12-24T18:25:28.524Z,8.31
2023-12-24T18:27:56.948Z,8.32
2023-12-24T18:30:24.709Z,8.51
2023-12-24T18:32:52.584Z,8.46
2023-12-24T18:35:20.459Z,8.55
2023-12-24T18:37:48.150Z,8.53
2023-12-24T18:40:17.462Z,8.59
2023-12-24T18:42:45.074Z,8.59
2023-12-24T18:45:12.728Z,8.61
2023-12-24T18:47:40.430Z,8.59
2023-12-24T18:50:09.076Z,8.63
2023-12-24T18:52:37.133Z,8.68
2023-12-24T18:55:05.092Z,8.76
2023-12-24T18:57:34.161Z,8.74
2023-12-24T19:00:01.873Z,8.84
2023-12-24T19:02:29.502Z,8.78
2023-12-24T19:04:57.240Z,8.79
2023-12-24T19:07:25.492Z,8.81
2023-12-24T19:09:53.147Z,8.91
2023-12-24T19:12:20.813Z,8.85
2023-12-24T19:14:49.814Z,8.83
2023-12-24T19:17:17.597Z,8.99
2023-12-24T19:19:45.304Z,8.94
2023-12-24T19:22:12.930Z,8.93
2023-12-24T19:24:40.549Z,8.90
2023-12-24T19:27:09.064Z,8.95
2023-12-24T19:29:36.848Z,8.95
2023-12-24T19:32:06.606Z,8.97
2023-12-24T19:34:34.192Z,9.00
2023-12-24T19:37:02.700Z,8.97
2023-12-24T19:39:30.288Z,9.01
2023-12-24T19:41:57.965Z,8.98
2023-12-24T19:44:25.893Z,9.05
2023-12-24T19:46:53.637Z,9.07
2023-12-24T19:49:22.661Z,9.03
2023-12-24T19:51:50.286Z,9.10
2023-12-24T19:54:17.947Z,9.09
2023-12-24T19:56:45.955Z,9.12
2023-12-24T19:59:13.766Z,9.09
2023-12-24T20:01:45.260Z,9.13
2023-12-24T20:04:14.497Z,9.22
2023-12-24T20:06:43.690Z,9.16
2023-12-24T20:09:12.414Z,9.21
2023-12-24T20:11:40.135Z,9.24
2023-12-24T20:14:09.021Z,9.29
2023-12-24T20:16:36.922Z,9.28
2023-12-24T20:19:04.730Z,9.24
2023-12-24T20:21:32.473Z,9.24
2023-12-24T20:24:01.498Z,9.26
2023-12-24T20:26:29.172Z,9.34
2023-12-24T20:28:56.809Z,9.36
2023-12-24T20:31:25.309Z,9.36
2023-12-24T20:33:52.972Z,9.37
2023-12-24T20:36:22.094Z,9.37
2023-12-24T20:38:49.714Z,9.38
2023-12-24T20:41:19.888Z,9.28
2023-12-24T20:43:47.548Z,9.25
2023-12-24T20:46:15.200Z,9.33
2023-12-24T20:48:42.898Z,9.25
2023-12-24T20:51:17.502Z,9.31
2023-12-24T20:53:45.139Z,9.29
2023-12-24T20:56:12.773Z,9.31
2023-12-24T20:58:41.778Z,9.23
2023-12-24T21:01:10.667Z,9.34
2023-12-24T21:03:38.436Z,9.28
2023-12-24T21:06:06.834Z,9.29
2023-12-24T21:08:34.522Z,9.37
2023-12-24T21:11:02.134Z,9.38
2023-12-24T21:13:29.691Z,9.43
2023-12-24T21:15:59.452Z,9.50
2023-12-24T21:18:29.362Z,9.57
2023-12-24T21:20:59.774Z,9.59
2023-12-24T21:23:27.526Z,9.60
2023-12-24T21:25:55.284Z,9.63
2023-12-24T21:28:22.945Z,9.58
2023-12-24T21:30:50.561Z,9.66
2023-12-24T21:33:19.876Z,9.72
2023-12-24T21:35:47.591Z,9.66
2023-12-24T21:38:16.224Z,9.56
2023-12-24T21:40:44.672Z,9.70
2023-12-24T21:43:12.237Z,9.61
2023-12-24T21:45:40.101Z,9.60
2023-12-24T21:48:08.186Z,9.66
2023-12-24T21:50:37.329Z,9.64
2023-12-24T21:53:05.911Z,9.68
2023-12-24T21:55:35.579Z,9.77
2023-12-24T21:58:03.203Z,9.71
2023-12-24T22:00:44.147Z,9.81
2023-12-24T22:03:20.421Z,9.66
2023-12-24T22:05:50.197Z,9.71
2023-12-24T22:08:17.931Z,9.78
2023-12-24T22:10:46.505Z,9.84
2023-12-24T22:13:14.123Z,9.77
2023-12-24T22:15:41.737Z,9.86
2023-12-24T22:18:09.580Z,9.95
2023-12-24T22:20:37.689Z,9.92
2023-12-24T22:23:06.774Z,9.90
2023-12-24T22:25:34.426Z,9.92
2023-12-24T22:28:02.275Z,9.91
2023-12-24T22:30:30.001Z,9.90
2023-12-24T22:32:58.503Z,9.85
2023-12-24T22:35:26.371Z,9.88
2023-12-24T22:37:55.004Z,9.98
2023-12-24T22:40:24.204Z,9.99
2023-12-24T22:42:51.783Z,10.15
2023-12-24T22:45:19.398Z,10.14
2023-12-24T22:47:47.128Z,10.16
2023-12-24T22:50:15.094Z,10.24
2023-12-24T22:52:42.734Z,10.17
2023-12-24T22:55:10.798Z,10.26
2023-12-24T22:57:39.776Z,10.28
2023-12-24T23:00:11.440Z,10.07
2023-12-24T23:02:39.172Z,10.21
2023-12-24T23:05:07.149Z,10.22
2023-12-24T23:07:34.920Z,10.22
2023-12-24T23:10:02.598Z,10.16
2023-12-24T23:12:30.199Z,10.15
2023-12-24T23:14:59.396Z,10.17
2023-12-24T23:17:27.162Z,10.18
2023-12-24T23:19:54.931Z,10.22
2023-12-24T23:22:22.554Z,10.17
2023-12-24T23:24:50.178Z,10.29
2023-12-24T23:27:17.813Z,10.29
2023-12-24T23:29:45.415Z,10.36
2023-12-24T23:32:15.438Z,10.26
2023-12-24T23:34:43.142Z,10.27
2023-12-24T23:37:12.058Z,10.19
2023-12-24T23:39:39.635Z,10.16
2023-12-24T23:42:07.538Z,10.17
2023-12-24T23:44:35.154Z,10.13
2023-12-24T23:47:02.812Z,10.19
2023-12-24T23:49:32.941Z,10.18
2023-12-24T23:52:00.564Z,10.28
2023-12-24T23:54:28.374Z,10.25
2023-12-24T23:56:56.045Z,10.15
2023-12-24T23:59:23.745Z,10.19
